Kansas City, Missouri
Traffic Map
Current Weather Conditions
Kansas City, Missouri
Clear
Clear
69°
Feels Like: 69°
Wind Chill: 69° Ceiling: Unl
Heat Index: 69° Visibility: 10mi
Dew Point: 60° Wind: 6mph
Humidity: 73% Direction: 30° (NNE)
Pressure: 30.1in Gusts: 0mph
Raw Report DataKMKC 011154Z 03005KT 10SM CLR 21/16 A3010 RMK AO2 SLP186 70001 T02060156 10228 20200 51021 $
Traffic Incident Summary
Active as of:
Severity:
Category:
InformationThere was an issue retrieving the traffic information for this location. Please try a different location or try again shortly.
Advertisements
Track Severe Weather on mobile